17 sierpnia 2022

Czas Kod Pogoda Temp. Widoczność Sufit Wiatr METAR/SPECI
5:00 am
V
55 °F 9 mi - 290° 290° 4 kt METAR CZVL 171100Z AUTO 29004KT 9SM CLR 13/11 A3016 RMK SLP217 DENSITY ALT 2300FT
4:00 am
V
61 °F 9 mi - 270° 270° 7 kt METAR CZVL 171000Z AUTO 27007KT 9SM CLR 16/12 A3016 RMK SLP211 DENSITY ALT 2600FT
3:00 am
V
59 °F 9 mi - 280° 280° 5 kt METAR CZVL 170900Z AUTO 28005KT 9SM CLR 15/12 A3014 RMK SLP207 DENSITY ALT 2600FT
2:00 am
V
59 °F 9 mi - 280° 280° 6 kt METAR CZVL 170800Z AUTO 28006KT 9SM CLR 15/13 A3013 RMK SLP203 DENSITY ALT 2600FT
1:00 am
V
61 °F 9 mi - 290° 290° 6 kt METAR CZVL 170700Z AUTO 29006KT 9SM CLR 16/13 A3012 RMK SLP201 DENSITY ALT 2700FT
12:00 am
V
64 °F 9 mi - 280° 280° 5 kt METAR CZVL 170600Z AUTO 28005KT 9SM CLR 18/13 A3010 RMK SLP192 DENSITY ALT 2900FT

16 sierpnia 2022

Czas Kod Pogoda Temp. Widoczność Sufit Wiatr METAR/SPECI
11:00 pm
V
66 °F 9 mi - 270° 270° 7 kt METAR CZVL 170500Z AUTO 27007KT 9SM CLR 19/13 A3010 RMK SLP189 DENSITY ALT 3100FT
10:00 pm
V
66 °F 9 mi - 270° 270° 6 kt METAR CZVL 170400Z AUTO 27006KT 9SM FEW110 19/13 A3009 RMK SLP189 DENSITY ALT 3100FT
9:00 pm
V
66 °F 9 mi - 260° 260° 4 kt METAR CZVL 170300Z AUTO 26004KT 9SM FEW210 19/14 A3008 RMK SLP186 DENSITY ALT 3200FT
8:02 pm
V
72 °F 9 mi 10.000 ft 240° 240° 6 kt METAR CZVL 170202Z AUTO 24006KT 9SM BKN100 BKN120 22/15 A3006 RMK SLP176 DENSITY ALT 3400FT
8:00 pm
V
72 °F 9 mi 10.000 ft 250° 250° 6 kt METAR CZVL 170200Z AUTO 25006KT 9SM -RA BKN100 BKN120 22/14 A3006 RMK SLP180 DENSITY ALT 3400FT
7:51 pm
V
72 °F 9 mi 10.000 ft 270° 270° 6 kt METAR CZVL 170151Z AUTO 27006KT 9SM -RA BKN100 BKN120 22/14 A3006 RMK SLP174 DENSITY ALT 3500FT
7:00 pm
V
75 °F 9 mi 11.000 ft 330° 330° 5 kt METAR CZVL 170100Z AUTO 33005KT 9SM BKN110 BKN140 24/15 A3003 RMK SLP173 DENSITY ALT 3700FT
6:00 pm
V
77 °F 9 mi - 340° 340° 6 kt METAR CZVL 170000Z AUTO 34006KT 9SM FEW130 25/13 A3003 RMK SLP170 DENSITY ALT 3800FT
5:00 pm
V
77 °F 9 mi - 020° 020° 8 kt METAR CZVL 162300Z AUTO 02008KT 340V040 9SM SCT130 25/14 A3002 RMK SLP166 DENSITY ALT 3800FT
4:00 pm
V
77 °F 9 mi 13.000 ft 360° 360° 9 kt METAR CZVL 162200Z AUTO 36009KT 9SM SCT110 BKN130 25/14 A3001 RMK SLP162 DENSITY ALT 3900FT
3:00 pm
V
73 °F 9 mi - 340° 340° 8 kt METAR CZVL 162100Z AUTO 34008KT 320V020 9SM CLR 23/13 A3002 RMK SLP166 DENSITY ALT 3600FT
2:00 pm
V
75 °F 9 mi 14.000 ft 320° 320° 12 - 17 kt METAR CZVL 162000Z AUTO 32012G17KT 9SM BKN140 24/13 A3003 RMK SLP168 DENSITY ALT 3700FT
1:00 pm
V
73 °F 9 mi - 290° 290° 10 - 18 kt METAR CZVL 161900Z AUTO 29010G18KT 9SM CLR 23/15 A3002 RMK SLP166 DENSITY ALT 3600FT
12:20 pm
L
75 °F 0 mi - 280° 280° 14 - 21 kt METAR CZVL 161820Z AUTO 28014G21KT FEW120 24/15 A3001 RMK WSHFT AT 1809Z WX MISG VIS MISG PCPN MISG SLP156 DENSITY ALT 3800FT
12:00 pm
L
77 °F 0 mi - 220° 220° 9 kt METAR CZVL 161800Z AUTO 22009KT 180V240 FEW130 25/14 A2999 RMK WX MISG VIS MISG PCPN MISG SLP155 DENSITY ALT 3900FT
11:00 am
V
73 °F 9 mi - 160° 160° 8 kt METAR CZVL 161700Z AUTO 16008KT 9SM CLR 23/14 A2998 RMK SLP149 DENSITY ALT 3700FT
10:00 am
V
70 °F 9 mi - 210° 210° 6 kt METAR CZVL 161600Z AUTO 21006KT 9SM CLR 21/15 A2999 RMK SLP156 DENSITY ALT 3400FT
9:00 am
V
66 °F 9 mi - 140° 140° 5 kt METAR CZVL 161500Z AUTO 14005KT 9SM CLR 19/15 A2999 RMK SLP156 DENSITY ALT 3200FT
8:00 am
V
61 °F 9 mi - 230° 230° 5 kt METAR CZVL 161400Z AUTO 23005KT 180V300 9SM CLR 16/14 A2999 RMK SLP155 DENSITY ALT 2900FT
7:00 am
V
52 °F 9 mi - Var 000° 0 kt METAR CZVL 161300Z AUTO 00000KT 9SM CLR 11/11 A2999 RMK SLP156 DENSITY ALT 2300FT
6:00 am
V
52 °F 9 mi - Var 000° 0 kt METAR CZVL 161200Z AUTO 00000KT 9SM CLR 11/10 A2999 RMK SLP155 DENSITY ALT 2300FT
5:00 am
V
54 °F 9 mi - Var 000° 0 kt METAR CZVL 161100Z AUTO 00000KT 9SM CLR 12/10 A2999 RMK SLP155 DENSITY ALT 2400FT
4:00 am
V
59 °F 9 mi - 190° 190° 5 kt METAR CZVL 161000Z AUTO 19005KT 9SM CLR 15/12 A2999 RMK SLP153 DENSITY ALT 2800FT
3:00 am
V
57 °F 9 mi - Var Var 2 kt METAR CZVL 160900Z AUTO VRB02KT 9SM CLR 14/12 A2999 RMK SLP154 DENSITY ALT 2600FT
2:00 am
V
59 °F 9 mi - 180° 180° 4 kt METAR CZVL 160800Z AUTO 18004KT 9SM CLR 15/13 A2999 RMK SLP153 DENSITY ALT 2800FT
1:00 am
V
59 °F 9 mi - 130° 130° 2 kt METAR CZVL 160700Z AUTO 13002KT 9SM CLR 15/12 A2999 RMK SLP152 DENSITY ALT 2800FT
12:00 am
V
63 °F 9 mi 18.000 ft Var 000° 0 kt METAR CZVL 160600Z AUTO 00000KT 9SM BKN180 17/13 A2999 RMK SLP151 DENSITY ALT 3000FT

15 sierpnia 2022

Czas Kod Pogoda Temp. Widoczność Sufit Wiatr METAR/SPECI
11:00 pm
V
64 °F 9 mi 19.000 ft 150° 150° 2 kt METAR CZVL 160500Z AUTO 15002KT 9SM OVC190 18/13 A2999 RMK SLP152 DENSITY ALT 3100FT
10:00 pm
V
63 °F 9 mi - 180° 180° 3 kt METAR CZVL 160400Z AUTO 18003KT 9SM FEW190 17/13 A2999 RMK SLP157 DENSITY ALT 3000FT
9:00 pm
V
68 °F 9 mi - 180° 180° 2 kt METAR CZVL 160300Z AUTO 18002KT 9SM CLR 20/15 A2999 RMK SLP155 DENSITY ALT 3300FT
8:00 pm
V
77 °F 9 mi - 330° 330° 3 kt METAR CZVL 160200Z AUTO 33003KT 9SM CLR 25/12 A2999 RMK SLP153 DENSITY ALT 3900FT
7:00 pm
V
79 °F 9 mi - 340° 340° 5 kt METAR CZVL 160100Z AUTO 34005KT 9SM CLR 26/11 A2999 RMK SLP156 DENSITY ALT 4000FT
6:00 pm
V
81 °F 9 mi - 300° 300° 4 kt METAR CZVL 160000Z AUTO 30004KT 9SM CLR 27/10 A2999 RMK SLP157 DENSITY ALT 4100FT
5:00 pm
V
79 °F 9 mi - 260° 260° 4 kt METAR CZVL 152300Z AUTO 26004KT 220V020 9SM CLR 26/09 A3000 RMK SLP159 DENSITY ALT 4000FT
4:00 pm
V
79 °F 9 mi - 280° 280° 6 kt METAR CZVL 152200Z AUTO 28006KT 240V310 9SM CLR 26/09 A3000 RMK SLP161 DENSITY ALT 4000FT
3:00 pm
V
82 °F 9 mi - 280° 280° 6 kt METAR CZVL 152100Z AUTO 28006KT 200V320 9SM CLR 28/10 A3001 RMK SLP160 DENSITY ALT 4100FT
2:00 pm
V
79 °F 9 mi - Var Var 2 kt METAR CZVL 152000Z AUTO VRB02KT 9SM CLR 26/10 A3002 RMK SLP162 DENSITY ALT 4000FT
1:00 pm
V
77 °F 9 mi - Var Var 3 kt METAR CZVL 151900Z AUTO VRB03KT 9SM CLR 25/10 A3003 RMK SLP167 DENSITY ALT 3900FT
12:00 pm
V
77 °F 9 mi - 170° 170° 4 kt METAR CZVL 151800Z AUTO 17004KT 100V220 9SM CLR 25/12 A3003 RMK SLP170 DENSITY ALT 3900FT
11:00 am
V
73 °F 9 mi - 180° 180° 4 kt METAR CZVL 151700Z AUTO 18004KT 120V190 9SM CLR 23/13 A3004 RMK SLP170 DENSITY ALT 3600FT
10:00 am
V
70 °F 9 mi - 180° 180° 6 kt METAR CZVL 151600Z AUTO 18006KT 9SM FEW100 21/13 A3004 RMK SLP174 DENSITY ALT 3400FT
9:00 am
V
66 °F 9 mi - Var Var 2 kt METAR CZVL 151500Z AUTO VRB02KT 9SM CLR 19/15 A3004 RMK SLP175 DENSITY ALT 3100FT
8:00 am
V
57 °F 9 mi - Var 000° 0 kt METAR CZVL 151400Z AUTO 00000KT 9SM CLR 14/13 A3004 RMK SLP174 DENSITY ALT 2600FT
7:00 am
V
52 °F 9 mi - 040° 040° 3 kt METAR CZVL 151300Z AUTO 04003KT 340V150 9SM CLR 11/11 A3004 RMK SLP175 DENSITY ALT 2300FT
Starsze dane

My i osoby trzecie śledzimy twoje zachowanie w internecie na naszej stronie za pomocą plików cookie. Jeśli kontynuujesz, zakładamy, że zgadzasz się z naszą polityką plików cookie. Dowiedz się więcej